Time;durP1;ratioP1;P1;durP2;ratioP2;P2;SDS_P1;SDS_P2;PMS_P1;PMS_P2;Temp;Humidity;BMP_temperature;BMP_pressure;BME280_temperature;BME280_humidity;BME280_pressure;Samples;Min_cycle;Max_cycle;Signal;HPM_P1;HPM_P2
2024/04/13 00:01:57;;;;;;;2.58;1.80;;;10.80;99.90;;;;;;5373971;26;20015;-62
2024/04/13 00:04:24;;;;;;;4.32;1.30;;;10.80;99.90;;;;;;5345689;26;20008;-61
2024/04/13 00:06:51;;;;;;;2.63;1.42;;;10.70;99.90;;;;;;5371020;26;20028;-62
2024/04/13 00:09:19;;;;;;;1.92;1.50;;;10.70;99.90;;;;;;5376173;26;20001;-61
2024/04/13 00:11:46;;;;;;;5.60;2.40;;;10.70;99.90;;;;;;5374427;26;20005;-62
2024/04/13 00:14:13;;;;;;;7.50;1.40;;;10.70;99.90;;;;;;5369324;26;20457;-62
2024/04/13 00:16:40;;;;;;;2.92;1.52;;;10.70;99.90;;;;;;5374520;26;20090;-61
2024/04/13 00:19:07;;;;;;;6.70;1.80;;;10.60;99.90;;;;;;5363913;26;20344;-62
2024/04/13 00:21:34;;;;;;;3.53;1.40;;;10.60;99.90;;;;;;5378052;26;20456;-61
2024/04/13 00:24:01;;;;;;;3.95;1.77;;;10.60;99.90;;;;;;5374075;26;20531;-60
2024/04/13 00:26:28;;;;;;;2.53;1.55;;;10.60;99.90;;;;;;5374352;26;20460;-60
2024/04/13 00:28:55;;;;;;;3.75;1.63;;;10.60;99.90;;;;;;5376610;26;20074;-61
2024/04/13 00:31:21;;;;;;;2.47;1.58;;;10.50;99.90;;;;;;5373726;26;20004;-62
2024/04/13 00:33:48;;;;;;;4.35;1.50;;;10.50;99.90;;;;;;5374185;26;20007;-61
2024/04/13 00:36:17;;;;;;;3.35;1.80;;;10.50;99.90;;;;;;5374333;26;20012;-61
2024/04/13 00:38:44;;;;;;;3.33;1.23;;;10.40;99.90;;;;;;5370370;26;20073;-61
2024/04/13 00:41:12;;;;;;;4.07;1.67;;;10.40;99.90;;;;;;5375788;26;20005;-60
2024/04/13 00:43:39;;;;;;;2.88;1.35;;;10.40;99.90;;;;;;5366005;26;20010;-58
2024/04/13 00:46:16;;;;;;;3.83;1.60;;;10.40;99.90;;;;;;5369273;26;20016;-60
2024/04/13 00:48:43;;;;;;;3.75;1.60;;;10.40;99.90;;;;;;5372358;26;20007;-60
2024/04/13 00:51:13;;;;;;;4.13;1.60;;;10.40;99.90;;;;;;5366206;26;20008;-60
2024/04/13 00:53:41;;;;;;;5.22;2.15;;;10.30;99.90;;;;;;5375100;26;20452;-59
2024/04/13 00:56:09;;;;;;;4.40;1.55;;;10.30;99.90;;;;;;5369175;26;20481;-60
2024/04/13 00:58:38;;;;;;;3.97;1.80;;;10.20;99.90;;;;;;5372709;26;20078;-60
2024/04/13 01:01:05;;;;;;;3.92;1.70;;;10.20;99.90;;;;;;5366598;26;20639;-62
2024/04/13 01:03:35;;;;;;;4.18;2.25;;;10.10;99.90;;;;;;5343148;26;20231;-60
2024/04/13 01:06:03;;;;;;;9.30;1.65;;;10.10;99.90;;;;;;5371377;26;20012;-62
2024/04/13 01:08:34;;;;;;;4.80;2.42;;;10.00;99.90;;;;;;5372352;26;20004;-61
2024/04/13 01:11:01;;;;;;;6.05;1.50;;;10.00;99.90;;;;;;5364254;26;20382;-61
2024/04/13 01:13:28;;;;;;;2.35;1.65;;;10.00;99.90;;;;;;5371862;26;20014;-61
2024/04/13 01:15:58;;;;;;;3.92;1.83;;;10.00;99.90;;;;;;5368339;26;20019;-61
2024/04/13 01:18:25;;;;;;;4.30;2.00;;;10.00;99.90;;;;;;5377833;26;20312;-61
2024/04/13 01:20:53;;;;;;;5.75;1.75;;;10.00;99.90;;;;;;5369815;26;20008;-60
2024/04/13 01:23:21;;;;;;;3.00;1.58;;;9.90;99.90;;;;;;5376559;26;20078;-61
2024/04/13 01:25:49;;;;;;;3.95;1.60;;;10.00;99.90;;;;;;5372487;26;19996;-61
2024/04/13 01:28:17;;;;;;;4.50;1.80;;;9.90;99.90;;;;;;5369050;26;21507;-61
2024/04/13 01:30:44;;;;;;;4.60;1.63;;;9.90;99.90;;;;;;5367038;26;19999;-59
2024/04/13 01:33:11;;;;;;;3.60;1.35;;;9.90;99.90;;;;;;5373309;26;19999;-61
2024/04/13 01:35:38;;;;;;;4.60;1.50;;;9.90;99.90;;;;;;5372294;26;20001;-61
2024/04/13 01:38:05;;;;;;;3.33;1.50;;;9.80;99.90;;;;;;5367616;26;20077;-61
2024/04/13 01:40:32;;;;;;;3.15;1.50;;;9.80;99.90;;;;;;5373542;26;20383;-61
2024/04/13 01:42:59;;;;;;;3.83;2.05;;;9.80;99.90;;;;;;5381704;26;20340;-61
2024/04/13 01:45:26;;;;;;;4.03;1.55;;;9.80;99.90;;;;;;5368945;26;20008;-61
2024/04/13 01:47:53;;;;;;;3.20;1.65;;;9.80;99.90;;;;;;5373583;26;20010;-61
2024/04/13 01:50:20;;;;;;;4.50;1.77;;;9.70;99.90;;;;;;5376670;26;20329;-61
2024/04/13 01:52:47;;;;;;;4.63;1.48;;;9.70;99.90;;;;;;5376734;26;20004;-61
2024/04/13 01:55:14;;;;;;;3.47;1.35;;;9.60;99.90;;;;;;5371180;26;19997;-61
2024/04/13 01:57:41;;;;;;;6.97;1.42;;;9.60;99.90;;;;;;5371282;26;20023;-61
2024/04/13 02:00:08;;;;;;;2.67;1.63;;;9.60;99.90;;;;;;5375418;26;20033;-59
2024/04/13 02:02:35;;;;;;;4.30;1.73;;;9.60;99.90;;;;;;5375639;26;20000;-60
2024/04/13 02:05:02;;;;;;;5.88;1.95;;;9.50;99.90;;;;;;5373759;26;20008;-61
2024/04/13 02:07:29;;;;;;;2.95;1.45;;;9.50;99.90;;;;;;5376768;26;20029;-60
2024/04/13 02:09:56;;;;;;;2.80;1.70;;;9.50;99.90;;;;;;5373235;26;20683;-61
2024/04/13 02:12:23;;;;;;;5.70;2.67;;;9.50;99.90;;;;;;5362860;26;20561;-60
2024/04/13 02:14:50;;;;;;;3.58;1.95;;;9.50;99.90;;;;;;5371117;26;20102;-58
2024/04/13 02:17:17;;;;;;;5.18;1.90;;;9.40;99.90;;;;;;5373717;26;20020;-61
2024/04/13 02:19:45;;;;;;;3.90;1.60;;;9.40;99.90;;;;;;5370856;26;20877;-60
2024/04/13 02:22:12;;;;;;;3.92;1.95;;;9.40;99.90;;;;;;5369269;26;20005;-60
2024/04/13 02:24:39;;;;;;;6.38;1.63;;;9.40;99.90;;;;;;5364637;26;20012;-59
2024/04/13 02:27:06;;;;;;;3.92;1.88;;;9.40;99.90;;;;;;5374294;26;20004;-61
2024/04/13 02:29:33;;;;;;;6.07;2.17;;;9.30;99.90;;;;;;5370751;26;20361;-59
2024/04/13 02:32:00;;;;;;;4.38;2.22;;;9.30;99.90;;;;;;5372360;26;20008;-60
2024/04/13 02:34:27;;;;;;;4.10;1.88;;;9.40;99.90;;;;;;5372781;26;20027;-62
2024/04/13 02:36:54;;;;;;;3.55;2.25;;;9.30;99.90;;;;;;5370098;26;20612;-61
2024/04/13 02:39:21;;;;;;;3.72;1.70;;;9.30;99.90;;;;;;5373013;26;20019;-61
2024/04/13 02:41:48;;;;;;;5.28;2.50;;;9.30;99.90;;;;;;5377392;26;20003;-61
2024/04/13 02:44:15;;;;;;;6.57;2.20;;;9.30;99.90;;;;;;5345186;26;20005;-61
2024/04/13 02:46:42;;;;;;;6.68;2.30;;;9.40;99.90;;;;;;5377446;26;20011;-61
2024/04/13 02:49:10;;;;;;;4.10;2.10;;;9.40;99.90;;;;;;5374882;26;20004;-61
2024/04/13 02:51:37;;;;;;;4.10;1.80;;;9.40;99.90;;;;;;5372441;26;20011;-59
2024/04/13 02:54:04;;;;;;;8.68;1.98;;;9.40;99.90;;;;;;5371664;26;20516;-61
2024/04/13 02:56:33;;;;;;;6.40;1.90;;;9.40;99.90;;;;;;5372987;26;20472;-61
2024/04/13 02:59:00;;;;;;;1.90;1.52;;;9.40;99.90;;;;;;5388289;26;20019;-61
2024/04/13 03:01:27;;;;;;;5.32;2.25;;;9.30;99.90;;;;;;5377910;26;20844;-61
2024/04/13 03:03:54;;;;;;;8.00;2.10;;;9.30;99.90;;;;;;5368441;26;20019;-62
2024/04/13 03:06:21;;;;;;;4.22;2.83;;;9.30;99.90;;;;;;5378209;26;20078;-61
2024/04/13 03:08:50;;;;;;;2.90;1.90;;;9.30;99.90;;;;;;5375188;26;20048;-61
2024/04/13 03:11:18;;;;;;;3.58;1.80;;;9.30;99.90;;;;;;5377885;26;20149;-61
2024/04/13 03:13:45;;;;;;;5.20;2.10;;;9.30;99.90;;;;;;5374690;26;20027;-61
2024/04/13 03:16:12;;;;;;;3.95;1.52;;;9.30;99.90;;;;;;5377878;26;20000;-61
2024/04/13 03:18:43;;;;;;;3.47;2.00;;;9.30;99.90;;;;;;5369618;26;20016;-61
2024/04/13 03:21:11;;;;;;;2.95;1.80;;;9.20;99.90;;;;;;5345724;26;20404;-61
2024/04/13 03:23:40;;;;;;;4.15;1.70;;;9.20;99.90;;;;;;5373259;26;20020;-61
2024/04/13 03:26:08;;;;;;;5.28;2.08;;;9.20;99.90;;;;;;5371089;26;20472;-61
2024/04/13 03:28:35;;;;;;;5.05;1.70;;;9.20;99.90;;;;;;5374435;26;20748;-61
2024/04/13 03:31:04;;;;;;;3.70;1.90;;;9.20;99.90;;;;;;5382355;26;20003;-61
2024/04/13 03:33:31;;;;;;;3.70;1.95;;;9.20;99.90;;;;;;5382195;26;20354;-61
2024/04/13 03:36:04;;;;;;;6.75;3.03;;;9.20;99.90;;;;;;5372251;26;20016;-61
2024/04/13 03:38:31;;;;;;;6.28;1.70;;;9.10;99.90;;;;;;5370003;26;20001;-61
2024/04/13 03:41:05;;;;;;;3.55;1.60;;;9.10;99.90;;;;;;5369114;26;20076;-61
2024/04/13 03:43:38;;;;;;;3.33;1.92;;;9.10;99.90;;;;;;5371285;26;20047;-61
2024/04/13 03:46:06;;;;;;;3.58;2.28;;;9.10;99.90;;;;;;5376118;26;20082;-61
2024/04/13 03:48:33;;;;;;;4.40;1.95;;;9.10;99.90;;;;;;5385862;26;20071;-61
2024/04/13 03:51:01;;;;;;;5.45;2.33;;;9.10;99.90;;;;;;5382311;26;20018;-61
2024/04/13 03:53:28;;;;;;;4.82;2.10;;;9.10;99.90;;;;;;5371998;26;20020;-61
2024/04/13 03:55:55;;;;;;;3.15;2.00;;;9.10;99.90;;;;;;5375286;26;20134;-61
2024/04/13 03:58:22;;;;;;;4.70;2.10;;;9.00;99.90;;;;;;5382958;26;20007;-61
2024/04/13 04:00:48;;;;;;;4.00;2.00;;;9.00;99.90;;;;;;5376806;26;20526;-61
2024/04/13 04:03:16;;;;;;;4.45;1.92;;;9.00;99.90;;;;;;5369583;26;20004;-59
2024/04/13 04:05:47;;;;;;;4.70;2.03;;;9.00;99.90;;;;;;5372811;26;19996;-61
2024/04/13 04:08:14;;;;;;;5.90;2.30;;;8.90;99.90;;;;;;5372369;26;20019;-61
2024/04/13 04:10:41;;;;;;;4.53;2.17;;;8.90;99.90;;;;;;5374830;26;20023;-60
2024/04/13 04:13:08;;;;;;;6.65;2.55;;;8.90;99.90;;;;;;5362962;26;20368;-61
2024/04/13 04:15:36;;;;;;;7.05;2.47;;;8.90;99.90;;;;;;5373652;26;20448;-61
2024/04/13 04:18:03;;;;;;;3.13;2.00;;;8.90;99.90;;;;;;5374951;26;20041;-59
2024/04/13 04:20:34;;;;;;;3.80;1.73;;;8.90;99.90;;;;;;5373608;26;20016;-61
2024/04/13 04:23:01;;;;;;;;;;;8.80;99.90;;;;;;5334009;26;20480;-61
2024/04/13 04:25:31;;;;;;;3.45;1.83;;;8.80;99.90;;;;;;5377969;26;19941;-61
2024/04/13 04:27:58;;;;;;;3.65;2.10;;;8.80;99.90;;;;;;5371804;26;19999;-61
2024/04/13 04:30:25;;;;;;;4.63;2.17;;;8.70;99.90;;;;;;5376595;26;20011;-57
2024/04/13 04:32:52;;;;;;;6.88;2.67;;;8.70;99.90;;;;;;5374997;26;20019;-61
2024/04/13 04:35:20;;;;;;;9.23;2.53;;;8.70;99.90;;;;;;5371312;26;20376;-61
2024/04/13 04:37:46;;;;;;;3.00;1.90;;;8.60;99.90;;;;;;5370951;26;20018;-61
2024/04/13 04:40:13;;;;;;;4.43;2.03;;;8.60;99.90;;;;;;5378625;26;20317;-61
2024/04/13 04:42:40;;;;;;;6.65;2.25;;;8.60;99.90;;;;;;5372947;26;20004;-60
2024/04/13 04:45:07;;;;;;;4.95;2.65;;;8.60;99.90;;;;;;5375877;26;20018;-61
2024/04/13 04:47:35;;;;;;;5.88;2.78;;;8.60;99.90;;;;;;5378899;26;20039;-61
2024/04/13 04:50:03;;;;;;;4.60;2.75;;;8.70;99.90;;;;;;5370694;26;20661;-60
2024/04/13 04:52:30;;;;;;;6.40;2.50;;;8.70;99.90;;;;;;5384701;26;20042;-58
2024/04/13 04:55:01;;;;;;;3.28;2.30;;;8.80;99.90;;;;;;5367302;26;20000;-61
2024/04/13 04:57:28;;;;;;;4.57;2.33;;;8.80;99.90;;;;;;5369578;26;20057;-61
2024/04/13 04:59:55;;;;;;;4.28;2.08;;;8.80;99.90;;;;;;5369813;26;20000;-61
2024/04/13 05:02:22;;;;;;;3.80;2.28;;;8.80;99.90;;;;;;5372683;26;20000;-61
2024/04/13 05:04:49;;;;;;;2.58;1.98;;;8.90;99.90;;;;;;5387408;26;20415;-61
2024/04/13 05:07:16;;;;;;;3.83;2.38;;;8.90;99.90;;;;;;5381227;26;19997;-61
2024/04/13 05:09:43;;;;;;;3.90;2.25;;;9.00;99.90;;;;;;5368996;26;20000;-57
2024/04/13 05:12:11;;;;;;;3.83;2.33;;;9.00;99.90;;;;;;5372858;26;20004;-60
2024/04/13 05:14:38;;;;;;;3.33;2.50;;;9.10;99.90;;;;;;5366051;26;20004;-62
2024/04/13 05:17:05;;;;;;;3.45;2.33;;;9.00;99.90;;;;;;5384779;26;20578;-61
2024/04/13 05:19:35;;;;;;;3.97;2.50;;;9.00;99.90;;;;;;5375371;26;20008;-60
2024/04/13 05:22:04;;;;;;;7.05;2.60;;;9.10;99.90;;;;;;5373341;26;20023;-61
2024/04/13 05:24:32;;;;;;;5.70;2.33;;;9.10;99.90;;;;;;5379119;26;20000;-61
2024/04/13 05:27:05;;;;;;;4.97;2.60;;;9.20;99.90;;;;;;5360923;26;20008;-61
2024/04/13 05:29:34;;;;;;;6.35;2.83;;;9.30;99.90;;;;;;5369599;26;20032;-60
2024/04/13 05:32:04;;;;;;;6.10;2.33;;;9.40;99.90;;;;;;5374992;26;22388;-62
2024/04/13 05:34:31;;;;;;;4.63;2.50;;;9.40;99.90;;;;;;5374157;26;20626;-60
2024/04/13 05:36:58;;;;;;;5.82;2.42;;;9.50;99.90;;;;;;5368538;26;20362;-61
2024/04/13 05:39:26;;;;;;;4.82;2.47;;;9.50;99.90;;;;;;5371999;26;20011;-62
2024/04/13 05:41:53;;;;;;;3.70;2.30;;;9.60;99.90;;;;;;5375626;26;23168;-61
2024/04/13 05:44:19;;;;;;;4.20;1.85;;;9.70;99.90;;;;;;5373064;26;20017;-62
2024/04/13 05:46:46;;;;;;;3.95;2.22;;;9.80;99.90;;;;;;5375070;26;20000;-61
2024/04/13 05:49:13;;;;;;;4.45;2.40;;;9.90;99.90;;;;;;5374485;26;20004;-62
2024/04/13 05:51:40;;;;;;;5.85;3.00;;;9.90;99.90;;;;;;5371080;26;20019;-62
2024/04/13 05:54:07;;;;;;;2.50;2.30;;;10.10;99.90;;;;;;5374257;26;20011;-62
2024/04/13 05:56:34;;;;;;;4.13;2.30;;;10.10;99.90;;;;;;5372734;26;20026;-61
2024/04/13 05:59:01;;;;;;;4.47;2.30;;;10.20;99.90;;;;;;5374940;26;20000;-60
2024/04/13 06:01:28;;;;;;;4.30;2.83;;;10.30;99.90;;;;;;5377560;26;20004;-62
2024/04/13 06:03:55;;;;;;;6.53;2.17;;;10.40;99.90;;;;;;5374506;26;20008;-62
2024/04/13 06:06:22;;;;;;;5.13;1.90;;;10.40;99.90;;;;;;5376618;26;20004;-61
2024/04/13 06:08:49;;;;;;;4.82;2.55;;;10.50;99.90;;;;;;5372573;26;20000;-61
2024/04/13 06:11:16;;;;;;;5.30;2.45;;;10.50;99.90;;;;;;5381676;26;20004;-62
2024/04/13 06:13:43;;;;;;;3.03;2.10;;;10.60;99.90;;;;;;5372205;26;20388;-61
2024/04/13 06:16:10;;;;;;;5.55;3.30;;;10.70;99.90;;;;;;5383783;26;20004;-61
2024/04/13 06:18:37;;;;;;;6.38;2.63;;;10.80;99.90;;;;;;5371715;26;20004;-61
2024/04/13 06:21:04;;;;;;;5.00;2.75;;;10.90;99.90;;;;;;5380658;26;20028;-59
2024/04/13 06:23:31;;;;;;;4.47;2.58;;;11.00;99.90;;;;;;5342006;26;20015;-59
2024/04/13 06:25:58;;;;;;;4.40;3.08;;;11.10;99.90;;;;;;5371726;26;20139;-59
2024/04/13 06:28:26;;;;;;;10.57;2.97;;;11.20;99.90;;;;;;5367056;26;20078;-59
2024/04/13 06:30:53;;;;;;;9.20;2.60;;;11.40;99.90;;;;;;5369524;26;20009;-60
2024/04/13 06:33:20;;;;;;;5.65;2.78;;;11.50;99.90;;;;;;5372382;26;19997;-62
2024/04/13 06:35:50;;;;;;;6.68;2.30;;;11.60;99.90;;;;;;5367925;26;20040;-62
2024/04/13 06:38:23;;;;;;;5.25;2.65;;;11.70;99.90;;;;;;5371619;26;20011;-62
2024/04/13 06:40:51;;;;;;;7.10;2.80;;;11.90;99.90;;;;;;5367992;26;20520;-62
2024/04/13 06:43:19;;;;;;;5.28;2.47;;;12.00;99.90;;;;;;5370846;26;20425;-62
2024/04/13 06:45:49;;;;;;;9.68;4.22;;;12.10;99.90;;;;;;5372814;26;20008;-62
2024/04/13 06:48:16;;;;;;;;;;;12.30;99.90;;;;;;5364613;26;20020;-62
2024/04/13 06:50:45;;;;;;;7.40;3.20;;;12.40;99.90;;;;;;5370713;26;19933;-62
2024/04/13 06:53:12;;;;;;;6.68;3.17;;;12.50;99.90;;;;;;5372922;26;20620;-62
2024/04/13 06:55:39;;;;;;;6.25;2.90;;;12.60;99.90;;;;;;5365969;26;20004;-62
2024/04/13 06:58:06;;;;;;;5.05;2.85;;;12.70;99.90;;;;;;5377521;26;20007;-62
2024/04/13 07:00:33;;;;;;;5.28;2.95;;;12.80;99.90;;;;;;5378288;26;20008;-62
2024/04/13 07:03:01;;;;;;;9.10;3.50;;;12.90;99.90;;;;;;5374322;26;20008;-62
2024/04/13 07:05:28;;;;;;;6.88;3.60;;;13.10;99.90;;;;;;5370657;26;20016;-62
2024/04/13 07:07:55;;;;;;;10.00;3.42;;;13.20;99.90;;;;;;5368193;26;20011;-62
2024/04/13 07:10:22;;;;;;;8.15;3.90;;;13.30;99.90;;;;;;5371867;26;20030;-62
2024/04/13 07:12:49;;;;;;;9.18;3.70;;;13.40;99.90;;;;;;5375573;26;20004;-62
2024/04/13 07:15:16;;;;;;;7.47;3.97;;;13.60;99.90;;;;;;5368591;26;20357;-61
2024/04/13 07:17:43;;;;;;;11.70;4.18;;;13.60;99.90;;;;;;5373815;26;20015;-62
2024/04/13 07:20:12;;;;;;;8.43;3.93;;;13.80;99.90;;;;;;5374485;26;20114;-62
2024/04/13 07:22:39;;;;;;;7.00;4.43;;;13.90;99.90;;;;;;5379296;26;20245;-62
2024/04/13 07:25:06;;;;;;;13.13;4.20;;;14.00;99.90;;;;;;5372566;26;20008;-62
2024/04/13 07:27:33;;;;;;;10.27;4.32;;;14.10;99.90;;;;;;5368100;26;20016;-61
2024/04/13 07:30:00;;;;;;;13.63;4.30;;;14.20;99.90;;;;;;5371681;26;20502;-62
2024/04/13 07:32:27;;;;;;;6.93;4.40;;;14.30;99.90;;;;;;5376133;26;20016;-62
2024/04/13 07:34:54;;;;;;;8.65;4.38;;;14.40;99.90;;;;;;5369986;26;20000;-62
2024/04/13 07:37:22;;;;;;;9.20;4.00;;;14.50;99.90;;;;;;5342126;26;20015;-62
2024/04/13 07:39:49;;;;;;;6.80;4.50;;;14.60;99.90;;;;;;5377028;26;20015;-61
2024/04/13 07:42:16;;;;;;;10.60;4.72;;;14.70;99.90;;;;;;5373920;26;20008;-62
2024/04/13 07:44:42;;;;;;;8.63;3.95;;;14.90;99.90;;;;;;5370418;26;20019;-62
2024/04/13 07:47:09;;;;;;;7.57;4.40;;;15.00;99.90;;;;;;5374168;26;20028;-62
2024/04/13 07:49:36;;;;;;;7.95;4.68;;;15.10;99.90;;;;;;5377495;26;20430;-62
2024/04/13 07:52:04;;;;;;;10.48;4.72;;;15.10;99.90;;;;;;5371312;26;20023;-62
2024/04/13 07:54:31;;;;;;;11.05;4.78;;;15.20;99.90;;;;;;5371422;26;20083;-62
2024/04/13 07:56:58;;;;;;;10.40;4.45;;;15.20;99.90;;;;;;5379083;26;20000;-62
2024/04/13 07:59:25;;;;;;;9.00;5.28;;;15.20;99.90;;;;;;5373776;26;20009;-62
2024/04/13 08:01:52;;;;;;;12.48;4.80;;;15.30;99.90;;;;;;5340491;26;20103;-62
2024/04/13 08:04:19;;;;;;;16.38;5.18;;;15.40;99.90;;;;;;5373894;26;20466;-62
2024/04/13 08:06:46;;;;;;;8.57;5.28;;;15.40;99.90;;;;;;5363033;26;20013;-62
2024/04/13 08:09:13;;;;;;;10.23;5.38;;;15.40;99.90;;;;;;5364532;26;20004;-62
2024/04/13 08:11:40;;;;;;;15.65;5.72;;;15.50;99.90;;;;;;5362693;26;20000;-62
2024/04/13 08:14:08;;;;;;;12.82;5.30;;;15.50;99.90;;;;;;5378335;26;19999;-62
2024/04/13 08:16:38;;;;;;;9.40;5.70;;;15.60;99.90;;;;;;5372771;26;20457;-61
2024/04/13 08:19:05;;;;;;;7.22;5.18;;;15.50;99.90;;;;;;5370645;26;20004;-59
2024/04/13 08:21:34;;;;;;;8.95;5.50;;;15.50;99.90;;;;;;5375409;26;20035;-62
2024/04/13 08:24:01;;;;;;;8.35;5.53;;;15.60;99.90;;;;;;5368186;26;20015;-61
2024/04/13 08:26:28;;;;;;;10.88;5.38;;;15.60;99.90;;;;;;5380775;26;20140;-62
2024/04/13 08:28:55;;;;;;;15.40;5.70;;;15.70;99.90;;;;;;5379162;26;20051;-62
2024/04/13 08:31:22;;;;;;;12.13;5.90;;;15.70;99.90;;;;;;5378097;26;20012;-62
2024/04/13 08:33:50;;;;;;;12.98;6.22;;;15.70;99.90;;;;;;5377273;26;20000;-62
2024/04/13 08:36:17;;;;;;;10.20;5.60;;;15.60;99.90;;;;;;5384964;26;20000;-62
2024/04/13 08:38:44;;;;;;;10.95;5.40;;;15.70;99.90;;;;;;5351128;26;19996;-62
2024/04/13 08:41:39;;;;;;;11.38;5.93;;;15.80;99.90;;;;;;5379907;26;20108;-62
2024/04/13 08:44:08;;;;;;;11.80;6.20;;;15.90;99.90;;;;;;5386839;26;20007;-61
2024/04/13 08:46:41;;;;;;;11.05;5.80;;;16.00;99.90;;;;;;5377478;26;20000;-62
2024/04/13 08:49:09;;;;;;;15.10;5.22;;;16.00;99.90;;;;;;5384939;26;20007;-62
2024/04/13 08:51:37;;;;;;;13.55;5.35;;;16.10;99.90;;;;;;5378451;26;20019;-60
2024/04/13 08:54:07;;;;;;;11.85;5.20;;;16.20;99.90;;;;;;5381148;26;20005;-62
2024/04/13 08:56:39;;;;;;;11.40;5.15;;;16.20;99.90;;;;;;5387428;26;20069;-59
2024/04/13 08:59:09;;;;;;;9.77;5.35;;;16.30;99.90;;;;;;5386772;26;20716;-61
2024/04/13 09:01:37;;;;;;;10.10;5.75;;;16.40;99.90;;;;;;5381813;26;20016;-61
2024/04/13 09:04:05;;;;;;;12.88;5.10;;;16.60;99.90;;;;;;5383719;26;20403;-61
2024/04/13 09:06:32;;;;;;;12.85;6.57;;;16.70;99.90;;;;;;5376936;26;20004;-60
2024/04/13 09:09:08;;;;;;;7.55;5.07;;;16.90;99.90;;;;;;5381486;26;20005;-60
2024/04/13 09:11:35;;;;;;;11.15;6.68;;;16.90;99.90;;;;;;5373100;26;20012;-61
2024/04/13 09:14:04;;;;;;;8.02;4.45;;;17.00;99.90;;;;;;5379063;26;20018;-61
2024/04/13 09:16:31;;;;;;;8.88;4.63;;;17.10;99.90;;;;;;5375240;26;20083;-61
2024/04/13 09:18:59;;;;;;;9.45;5.20;;;17.30;99.90;;;;;;5376568;26;20093;-61
2024/04/13 09:21:30;;;;;;;13.30;5.22;;;17.30;99.90;;;;;;5375341;26;20000;-59
2024/04/13 09:23:57;;;;;;;;;;;17.40;99.90;;;;;;5335308;26;20015;-61
2024/04/13 09:26:24;;;;;;;10.63;5.15;;;17.40;99.90;;;;;;5365306;26;19949;-61
2024/04/13 09:28:51;;;;;;;12.88;4.95;;;17.50;99.90;;;;;;5345233;26;20019;-61
2024/04/13 09:31:18;;;;;;;14.55;5.30;;;17.60;99.90;;;;;;5375908;26;20085;-59
2024/04/13 09:33:50;;;;;;;6.70;4.22;;;17.60;99.90;;;;;;5376841;26;20445;-61
2024/04/13 09:36:23;;;;;;;10.77;4.72;;;17.70;99.90;;;;;;5372021;26;20078;-61
2024/04/13 09:38:53;;;;;;;12.43;5.13;;;17.80;99.90;;;;;;5368093;26;20004;-59
2024/04/13 09:41:22;;;;;;;9.32;4.35;;;17.90;99.90;;;;;;5375122;26;20023;-61
2024/04/13 09:43:52;;;;;;;12.43;5.43;;;18.00;99.90;;;;;;5375476;26;20012;-61
2024/04/13 09:46:20;;;;;;;10.63;4.38;;;18.00;99.90;;;;;;5375411;26;20004;-62
2024/04/13 09:48:47;;;;;;;11.65;4.03;;;18.10;99.90;;;;;;5378626;26;20004;-62
2024/04/13 09:51:14;;;;;;;13.00;5.22;;;18.20;99.90;;;;;;5375897;26;19999;-61
2024/04/13 09:53:42;;;;;;;5.07;3.67;;;18.20;99.90;;;;;;5378906;26;20026;-62
2024/04/13 09:56:12;;;;;;;5.13;3.53;;;18.30;99.90;;;;;;5376236;26;20464;-62
2024/04/13 09:58:40;;;;;;;7.63;4.15;;;18.40;99.90;;;;;;5375672;26;20007;-61
2024/04/13 10:01:07;;;;;;;9.35;3.63;;;18.50;99.90;;;;;;5372495;26;20015;-61
2024/04/13 10:03:34;;;;;;;8.73;3.80;;;18.60;99.90;;;;;;5376072;26;20000;-60
2024/04/13 10:06:04;;;;;;;5.55;4.28;;;18.70;99.90;;;;;;5372257;26;20069;-60
2024/04/13 10:08:32;;;;;;;7.93;3.67;;;18.80;99.90;;;;;;5373831;26;20015;-61
2024/04/13 10:11:02;;;;;;;8.27;3.72;;;19.00;99.90;;;;;;5372345;26;20246;-62
2024/04/13 10:13:39;;;;;;;10.63;4.20;;;19.00;99.90;;;;;;5373415;26;20056;-60
2024/04/13 10:16:07;;;;;;;15.80;4.38;;;19.10;99.90;;;;;;5372659;26;20000;-62
2024/04/13 10:18:36;;;;;;;10.02;3.60;;;19.20;99.90;;;;;;5376463;26;20015;-62
2024/04/13 10:21:04;;;;;;;7.78;3.50;;;19.30;99.90;;;;;;5371514;26;20001;-61
2024/04/13 10:23:41;;;;;;;11.43;3.85;;;19.40;99.90;;;;;;5366862;26;20074;-60
2024/04/13 10:26:09;;;;;;;10.73;4.30;;;19.50;99.90;;;;;;5371464;26;20011;-62
2024/04/13 10:28:37;;;;;;;9.25;3.90;;;19.50;99.90;;;;;;5342514;26;20016;-59
2024/04/13 10:31:04;;;;;;;8.57;3.60;;;19.40;99.90;;;;;;5373817;26;20008;-60
2024/04/13 10:33:32;;;;;;;7.72;3.80;;;19.40;99.90;;;;;;5374522;26;20492;-59
2024/04/13 10:36:01;;;;;;;6.50;3.67;;;19.50;99.90;;;;;;5377388;26;20485;-61
2024/04/13 10:38:33;;;;;;;9.70;4.28;;;19.40;99.90;;;;;;5376140;26;20016;-61
2024/04/13 10:41:02;;;;;;;7.75;4.10;;;19.40;99.90;;;;;;5372960;26;20012;-62
2024/04/13 10:43:29;;;;;;;13.48;4.40;;;19.40;99.90;;;;;;5368718;26;20011;-62
2024/04/13 10:46:02;;;;;;;10.70;4.03;;;19.40;99.90;;;;;;5372340;26;20353;-62
2024/04/13 10:48:32;;;;;;;11.95;3.50;;;19.40;99.90;;;;;;5340204;26;20006;-61
2024/04/13 10:51:00;;;;;;;13.18;3.70;;;19.40;99.90;;;;;;5371906;26;20012;-62
2024/04/13 10:53:28;;;;;;;8.57;3.80;;;19.40;99.90;;;;;;5370896;26;20008;-62
2024/04/13 10:55:58;;;;;;;12.48;3.08;;;19.50;99.90;;;;;;5370934;26;20018;-62
2024/04/13 10:58:29;;;;;;;13.50;3.90;;;19.50;99.90;;;;;;5370290;26;20457;-62
2024/04/13 11:00:57;;;;;;;7.85;3.75;;;19.60;99.90;;;;;;5375476;26;20740;-62
2024/04/13 11:03:24;;;;;;;8.55;3.90;;;19.80;99.90;;;;;;5378276;26;20086;-62
2024/04/13 11:05:51;;;;;;;7.32;3.50;;;19.80;99.90;;;;;;5374496;26;20008;-62
2024/04/13 11:08:20;;;;;;;8.27;3.78;;;20.00;99.90;;;;;;5374481;26;20015;-62
2024/04/13 11:10:51;;;;;;;10.25;3.95;;;20.00;99.90;;;;;;5374167;26;20028;-62
2024/04/13 11:13:18;;;;;;;8.98;4.72;;;20.10;99.90;;;;;;5380385;26;20377;-62
2024/04/13 11:15:46;;;;;;;11.68;4.82;;;20.30;99.90;;;;;;5379016;26;20004;-62
2024/04/13 11:18:13;;;;;;;12.07;4.20;;;20.40;99.90;;;;;;5380362;26;20004;-62
2024/04/13 11:20:42;;;;;;;9.25;4.75;;;20.40;99.90;;;;;;5378595;26;20055;-62
2024/04/13 11:23:09;;;;;;;15.65;5.18;;;20.50;99.90;;;;;;5381728;26;20012;-62
2024/04/13 11:25:36;;;;;;;6.38;4.20;;;20.60;99.90;;;;;;5372160;26;20055;-62
2024/04/13 11:28:04;;;;;;;8.23;4.10;;;20.70;99.90;;;;;;5366427;26;20592;-62
2024/04/13 11:30:31;;;;;;;11.70;5.22;;;20.80;99.90;;;;;;5368681;26;20341;-62
2024/04/13 11:33:01;;;;;;;8.00;4.57;;;20.80;99.90;;;;;;5371200;26;20012;-62
2024/04/13 11:35:28;;;;;;;11.38;5.63;;;21.00;99.90;;;;;;5369029;26;20004;-62
2024/04/13 11:38:00;;;;;;;7.68;4.35;;;21.00;99.90;;;;;;5366098;26;20395;-62
2024/04/13 11:40:30;;;;;;;7.90;4.90;;;21.10;99.90;;;;;;5367405;26;20344;-61
2024/04/13 11:42:59;;;;;;;10.80;5.03;;;21.30;99.90;;;;;;5365749;26;20008;-62
2024/04/13 11:45:27;;;;;;;8.63;4.70;;;21.30;99.90;;;;;;5369378;26;20094;-62
2024/04/13 11:47:54;;;;;;;8.70;4.72;;;21.30;99.90;;;;;;5368974;26;20024;-62
2024/04/13 11:50:22;;;;;;;6.10;4.28;;;21.30;99.90;;;;;;5366873;26;20019;-62
2024/04/13 11:52:50;;;;;;;8.98;4.00;;;21.30;99.90;;;;;;5369810;26;20008;-62
2024/04/13 11:55:21;;;;;;;10.45;4.18;;;21.30;99.90;;;;;;5367000;26;20004;-62
2024/04/13 11:57:48;;;;;;;10.05;4.35;;;21.30;99.90;;;;;;5367493;26;20031;-62
2024/04/13 12:00:16;;;;;;;6.40;4.10;;;21.20;99.90;;;;;;5369197;26;20045;-62
2024/04/13 12:02:44;;;;;;;7.65;3.70;;;21.10;99.90;;;;;;5369493;26;20015;-62
2024/04/13 12:05:12;;;;;;;7.55;3.67;;;21.10;99.90;;;;;;5370423;26;20008;-63
2024/04/13 12:07:39;;;;;;;7.50;3.60;;;21.10;99.90;;;;;;5368797;26;20000;-63
2024/04/13 12:10:07;;;;;;;7.13;3.90;;;21.10;99.90;;;;;;5370827;26;20005;-63
2024/04/13 12:12:34;;;;;;;8.48;3.80;;;21.10;99.90;;;;;;5361724;26;19996;-62
2024/04/13 12:15:01;;;;;;;9.57;3.75;;;21.20;99.90;;;;;;5326033;26;20403;-62
2024/04/13 12:17:28;;;;;;;7.13;3.78;;;21.20;99.90;;;;;;5370057;26;20078;-62
2024/04/13 12:19:55;;;;;;;8.10;3.95;;;21.20;99.90;;;;;;5370527;26;20055;-61
2024/04/13 12:22:22;;;;;;;6.22;3.15;;;21.20;99.90;;;;;;5370603;26;20011;-62
2024/04/13 12:24:49;;;;;;;10.27;3.03;;;21.20;99.90;;;;;;5341486;26;20090;-62
2024/04/13 12:27:16;;;;;;;4.78;3.25;;;21.20;99.90;;;;;;5372721;26;20027;-62
2024/04/13 12:29:43;;;;;;;13.18;3.78;;;21.20;99.90;;;;;;5372055;26;20019;-62
2024/04/13 12:32:10;;;;;;;7.00;3.78;;;21.20;99.90;;;;;;5369273;26;20019;-62
2024/04/13 12:34:39;;;;;;;7.53;3.60;;;21.30;99.90;;;;;;5359667;26;20024;-62
2024/04/13 12:37:06;;;;;;;7.70;3.20;;;21.30;99.90;;;;;;5361190;26;20129;-62
2024/04/13 12:39:33;;;;;;;6.88;3.47;;;21.30;99.90;;;;;;5365299;26;20011;-62
2024/04/13 12:42:00;;;;;;;9.70;3.33;;;21.30;99.90;;;;;;5369670;26;20391;-62
2024/04/13 12:44:29;;;;;;;7.85;3.42;;;21.40;99.90;;;;;;5368208;26;20090;-62
2024/04/13 12:46:57;;;;;;;6.10;3.17;;;21.40;99.90;;;;;;5368975;26;20023;-61
2024/04/13 12:49:23;;;;;;;8.00;2.88;;;21.40;99.90;;;;;;5371674;26;20022;-62
2024/04/13 12:51:50;;;;;;;7.25;3.08;;;21.60;99.90;;;;;;5370638;26;20526;-62